createdAt,value
2019-05-10T00:00:40.763Z,0.83
2019-05-10T00:06:00.876Z,1.10
2019-05-10T00:11:32.332Z,2.00
2019-05-10T00:16:34.773Z,1.20
2019-05-10T00:21:36.829Z,1.63
2019-05-10T00:26:38.913Z,1.00
2019-05-10T00:31:41.024Z,1.50
2019-05-10T00:36:43.102Z,1.50
2019-05-10T00:41:45.149Z,3.47
2019-05-10T00:46:47.391Z,3.40
2019-05-10T00:51:49.472Z,2.10
2019-05-10T00:56:51.485Z,3.40
2019-05-10T01:01:53.580Z,2.20
2019-05-10T01:06:56.671Z,2.30
2019-05-10T01:11:58.789Z,1.60
2019-05-10T01:17:00.896Z,3.37
2019-05-10T01:22:02.951Z,4.30
2019-05-10T01:27:05.001Z,5.53
2019-05-10T01:32:07.146Z,3.33
2019-05-10T01:37:09.200Z,3.20
2019-05-10T01:42:11.282Z,2.90
2019-05-10T01:47:13.329Z,3.37
2019-05-10T01:52:15.464Z,3.40
2019-05-10T01:57:17.535Z,4.13
2019-05-10T02:02:19.645Z,2.60
2019-05-10T02:07:21.724Z,2.97
2019-05-10T02:12:23.758Z,4.47
2019-05-10T02:17:25.887Z,2.00
2019-05-10T02:22:27.954Z,2.80
2019-05-10T02:27:30.039Z,2.23
2019-05-10T02:32:32.132Z,2.73
2019-05-10T02:37:34.377Z,2.57
2019-05-10T02:42:36.711Z,3.50
2019-05-10T02:47:38.785Z,3.40
2019-05-10T02:52:40.823Z,2.70
2019-05-10T02:57:43.984Z,3.20
2019-05-10T03:02:46.633Z,4.73
2019-05-10T03:07:52.418Z,3.67
2019-05-10T03:12:58.208Z,5.33
2019-05-10T03:18:01.604Z,4.33
2019-05-10T03:23:05.136Z,3.40
2019-05-10T03:28:07.199Z,3.83
2019-05-10T03:33:09.280Z,4.47
2019-05-10T03:38:11.690Z,5.10
2019-05-10T03:43:13.879Z,5.40
2019-05-10T03:48:15.953Z,5.60
2019-05-10T03:53:17.993Z,5.73
2019-05-10T03:58:20.073Z,5.97
2019-05-10T04:03:22.121Z,6.43
2019-05-10T04:08:24.321Z,5.33
2019-05-10T04:13:26.352Z,7.70
2019-05-10T04:18:28.437Z,8.40
2019-05-10T04:23:30.510Z,6.40
2019-05-10T04:28:32.579Z,9.10
2019-05-10T04:33:34.701Z,6.67
2019-05-10T04:38:36.782Z,5.70
2019-05-10T04:43:38.863Z,5.60
2019-05-10T04:48:40.956Z,5.70
2019-05-10T04:53:43.020Z,5.50
2019-05-10T04:58:45.060Z,5.70
2019-05-10T05:03:47.145Z,6.17
2019-05-10T05:08:49.259Z,8.13
2019-05-10T05:13:51.335Z,5.40
2019-05-10T05:18:53.443Z,5.80
2019-05-10T05:23:55.517Z,7.47
2019-05-10T05:28:57.750Z,5.30
2019-05-10T05:34:04.977Z,6.80
2019-05-10T05:39:05.782Z,6.53
2019-05-10T05:44:07.883Z,4.80
2019-05-10T05:49:09.922Z,5.17
2019-05-10T05:54:15.075Z,6.47
2019-05-10T05:59:17.334Z,5.23
2019-05-10T06:04:20.085Z,6.70
2019-05-10T06:09:22.156Z,8.00
2019-05-10T06:14:24.292Z,6.73
2019-05-10T06:19:29.421Z,6.43
2019-05-10T06:24:33.809Z,7.63
2019-05-10T06:29:34.272Z,7.13
2019-05-10T06:34:38.962Z,6.73
2019-05-10T06:39:40.694Z,7.70
2019-05-10T06:44:42.760Z,8.50
2019-05-10T06:49:50.778Z,7.07
2019-05-10T06:54:48.799Z,9.17
2019-05-10T06:59:50.990Z,8.70
2019-05-10T07:04:53.082Z,6.90
2019-05-10T07:10:12.284Z,9.07
2019-05-10T07:15:03.362Z,5.13
2019-05-10T07:20:03.844Z,5.53
2019-05-10T07:25:07.601Z,4.43
2019-05-10T07:30:10.227Z,5.57
2019-05-10T07:35:12.604Z,6.43
2019-05-10T07:40:14.797Z,6.57
2019-05-10T07:45:18.704Z,7.20
2019-05-10T07:50:20.929Z,2.27
2019-05-10T07:55:28.690Z,4.20
2019-05-10T08:00:29.082Z,4.13
2019-05-10T08:05:31.175Z,5.03
2019-05-10T08:10:33.229Z,3.00
2019-05-10T08:15:35.405Z,7.43
2019-05-10T08:20:49.612Z,4.57
2019-05-10T08:25:46.881Z,4.60
2019-05-10T08:30:58.479Z,2.63
2019-05-10T08:35:52.473Z,3.93
2019-05-10T08:40:55.765Z,2.90
2019-05-10T08:45:58.096Z,4.73
2019-05-10T08:51:04.053Z,2.60
2019-05-10T08:56:07.791Z,3.47
2019-05-10T09:01:20.592Z,3.23
2019-05-10T09:06:16.702Z,4.43
2019-05-10T09:11:16.976Z,2.63
2019-05-10T09:16:19.074Z,4.93
2019-05-10T09:21:22.311Z,4.43
2019-05-10T09:26:26.770Z,3.70
2019-05-10T09:31:34.058Z,2.20
2019-05-10T09:36:38.051Z,4.13
2019-05-10T09:41:44.645Z,3.47
2019-05-10T09:46:47.211Z,5.03
2019-05-10T09:51:49.553Z,4.77
2019-05-10T09:56:52.456Z,3.70
2019-05-10T10:01:57.024Z,4.90
2019-05-10T10:06:58.890Z,4.90
2019-05-10T10:12:03.003Z,2.37
2019-05-10T10:17:05.081Z,1.67
2019-05-10T10:22:11.025Z,2.43
2019-05-10T10:27:12.934Z,2.07
2019-05-10T10:32:15.051Z,3.63
2019-05-10T10:37:22.124Z,1.47
2019-05-10T10:42:21.164Z,3.43
2019-05-10T10:47:28.354Z,7.23
2019-05-10T10:52:27.841Z,2.57
2019-05-10T10:57:30.040Z,4.13
2019-05-10T11:02:33.906Z,3.80
2019-05-10T11:07:41.043Z,2.00
2019-05-10T11:12:41.393Z,2.90
2019-05-10T11:17:43.713Z,1.73
2019-05-10T11:22:50.917Z,3.00
2019-05-10T11:27:56.426Z,5.03
2019-05-10T11:32:53.997Z,3.07
2019-05-10T11:37:56.106Z,1.50
2019-05-10T11:42:58.206Z,2.70
2019-05-10T11:48:02.167Z,2.63
2019-05-10T11:53:06.848Z,1.70
2019-05-10T11:58:12.280Z,2.30
2019-05-10T12:03:18.405Z,2.73
2019-05-10T12:08:16.262Z,2.67
2019-05-10T12:13:20.852Z,1.20
2019-05-10T12:26:05.395Z,2.43
2019-05-10T12:26:59.165Z,3.80
2019-05-10T12:28:35.324Z,3.83
2019-05-10T12:33:50.439Z,4.23
2019-05-10T12:38:52.223Z,1.80
2019-05-10T12:44:02.748Z,3.17
2019-05-10T12:48:58.448Z,2.77
2019-05-10T12:54:00.479Z,3.40
2019-05-10T12:59:02.586Z,1.03
2019-05-10T13:04:13.760Z,2.20
2019-05-10T13:09:08.678Z,4.67
2019-05-10T13:14:10.723Z,2.87
2019-05-10T13:19:14.286Z,2.97
2019-05-10T13:24:16.742Z,2.40
2019-05-10T13:29:18.827Z,2.00
2019-05-10T13:34:24.060Z,2.47
2019-05-10T13:39:27.406Z,2.57
2019-05-10T13:44:28.939Z,1.77
2019-05-10T13:49:31.069Z,2.13
2019-05-10T13:54:36.189Z,2.10
2019-05-10T13:59:37.123Z,1.63
2019-05-10T14:04:40.210Z,1.07
2019-05-10T14:09:42.379Z,1.07
2019-05-10T14:14:44.416Z,1.57
2019-05-10T14:19:46.518Z,0.93
2019-05-10T14:24:52.806Z,2.87
2019-05-10T14:29:52.655Z,2.80
2019-05-10T14:34:54.724Z,1.07
2019-05-10T14:39:56.811Z,2.43
2019-05-10T14:44:58.940Z,4.30
2019-05-10T14:50:01.093Z,2.73
2019-05-10T14:55:04.034Z,3.17
2019-05-10T15:00:06.878Z,2.00
2019-05-10T15:05:16.134Z,1.40
2019-05-10T15:10:13.610Z,1.77
2019-05-10T15:15:15.877Z,2.73
2019-05-10T15:20:17.982Z,1.90
2019-05-10T15:25:20.159Z,3.83
2019-05-10T15:30:22.350Z,1.40
2019-05-10T15:35:24.423Z,3.37
2019-05-10T15:40:26.491Z,4.33
2019-05-10T15:45:28.725Z,1.40
2019-05-10T15:50:32.479Z,1.43
2019-05-10T15:55:35.929Z,2.87
2019-05-10T16:00:41.229Z,2.07
2019-05-10T16:05:43.986Z,2.77
2019-05-10T16:10:48.188Z,5.07
2019-05-10T16:15:51.543Z,3.73
2019-05-10T16:20:54.239Z,5.40
2019-05-10T16:25:56.307Z,2.50
2019-05-10T16:30:58.395Z,3.97
2019-05-10T16:36:00.438Z,3.07
2019-05-10T16:41:02.518Z,17.30
2019-05-10T16:46:04.753Z,11.43
2019-05-10T16:51:09.920Z,7.40
2019-05-10T16:56:13.510Z,305.00
2019-05-10T17:01:18.567Z,212.57
2019-05-10T17:06:18.667Z,104.20
2019-05-10T17:11:20.754Z,61.87
2019-05-10T17:16:22.851Z,13.30
2019-05-10T17:21:24.905Z,6.17
2019-05-10T17:26:26.975Z,9.73
2019-05-10T17:31:29.041Z,3.23
2019-05-10T17:36:31.194Z,3.07
2019-05-10T17:41:33.286Z,1.40
2019-05-10T17:46:35.357Z,1.80
2019-05-10T17:51:37.415Z,2.07
2019-05-10T17:56:40.668Z,5.20
2019-05-10T18:01:43.044Z,4.77
2019-05-10T18:06:45.123Z,4.80
2019-05-10T18:11:47.182Z,6.77
2019-05-10T18:16:50.146Z,3.37
2019-05-10T18:21:54.838Z,4.60
2019-05-10T18:26:56.610Z,4.13
2019-05-10T18:31:58.715Z,3.93
2019-05-10T18:37:00.774Z,3.57
2019-05-10T18:42:02.857Z,6.47
2019-05-10T18:47:04.977Z,5.20
2019-05-10T18:52:07.053Z,10.53
2019-05-10T18:57:12.218Z,6.43
2019-05-10T19:02:17.944Z,6.03
2019-05-10T19:07:17.039Z,5.90
2019-05-10T19:12:26.131Z,4.43
2019-05-10T19:17:31.691Z,5.23
2019-05-10T19:22:33.727Z,6.13
2019-05-10T19:27:38.857Z,4.63
2019-05-10T19:32:39.795Z,5.70
2019-05-10T19:37:41.849Z,5.43
2019-05-10T19:42:44.963Z,5.10
2019-05-10T19:47:49.828Z,5.13
2019-05-10T19:52:51.210Z,5.77
2019-05-10T19:57:54.672Z,6.97
2019-05-10T20:02:57.345Z,10.23
2019-05-10T20:07:59.429Z,9.80
2019-05-10T20:13:01.569Z,14.47
2019-05-10T20:18:04.185Z,11.80
2019-05-10T20:23:06.644Z,10.47
2019-05-10T20:28:09.710Z,10.83
2019-05-10T20:33:11.784Z,11.77
2019-05-10T20:38:13.823Z,13.13
2019-05-10T20:43:15.893Z,11.53
2019-05-10T20:48:18.027Z,12.83
2019-05-10T20:53:20.172Z,18.63
2019-05-10T20:58:22.302Z,21.67
2019-05-10T21:03:24.377Z,17.77
2019-05-10T21:08:26.459Z,21.67
2019-05-10T21:13:28.589Z,9.17
2019-05-10T21:18:30.686Z,10.13
2019-05-10T21:23:32.766Z,9.10
2019-05-10T21:28:36.474Z,14.77
2019-05-10T21:33:38.523Z,12.50
2019-05-10T21:38:41.773Z,12.93
2019-05-10T21:43:44.176Z,14.90
2019-05-10T21:48:46.302Z,13.33
2019-05-10T21:53:48.414Z,15.43
2019-05-10T21:58:50.458Z,15.93
2019-05-10T22:03:52.520Z,18.73
2019-05-10T22:08:54.622Z,12.83
2019-05-10T22:13:56.687Z,9.37
2019-05-10T22:19:00.729Z,8.67
2019-05-10T22:24:02.822Z,11.20
2019-05-10T22:29:04.890Z,8.93
2019-05-10T22:34:06.979Z,8.07
2019-05-10T22:39:09.031Z,8.23
2019-05-10T22:44:11.109Z,8.00
2019-05-10T22:49:13.300Z,8.47
2019-05-10T22:54:15.374Z,7.43
2019-05-10T22:59:17.414Z,7.90
2019-05-10T23:04:19.445Z,6.43
2019-05-10T23:09:24.776Z,7.73
2019-05-10T23:14:25.653Z,7.87
2019-05-10T23:19:27.705Z,9.57
2019-05-10T23:24:38.972Z,6.70
2019-05-10T23:29:41.117Z,7.20
2019-05-10T23:34:43.180Z,7.30
2019-05-10T23:39:45.222Z,8.57
2019-05-10T23:44:47.339Z,6.80
2019-05-10T23:49:49.412Z,7.97
2019-05-10T23:54:51.519Z,7.10
2019-05-10T23:59:53.628Z,7.63
